createdAt,value
2018-07-12T00:01:47.310Z,75.50
2018-07-12T00:04:14.697Z,75.50
2018-07-12T00:06:42.175Z,75.10
2018-07-12T00:09:09.574Z,74.60
2018-07-12T00:11:37.000Z,74.40
2018-07-12T00:14:04.376Z,74.50
2018-07-12T00:16:31.817Z,74.10
2018-07-12T00:18:59.228Z,74.00
2018-07-12T00:21:26.666Z,74.10
2018-07-12T00:23:54.029Z,73.90
2018-07-12T00:26:21.458Z,73.80
2018-07-12T00:28:48.877Z,73.90
2018-07-12T00:31:16.308Z,73.60
2018-07-12T00:33:43.771Z,73.60
2018-07-12T00:36:11.129Z,73.60
2018-07-12T00:38:38.556Z,73.60
2018-07-12T00:41:05.987Z,73.50
2018-07-12T00:43:33.414Z,73.40
2018-07-12T00:46:00.834Z,73.20
2018-07-12T00:48:32.421Z,73.40
2018-07-12T00:50:59.800Z,73.10
2018-07-12T00:53:27.216Z,73.20
2018-07-12T00:55:54.604Z,73.20
2018-07-12T00:58:22.039Z,73.20
2018-07-12T01:00:49.443Z,73.40
2018-07-12T01:03:16.881Z,73.50
2018-07-12T01:05:44.323Z,73.40
2018-07-12T01:08:11.739Z,73.40
2018-07-12T01:10:39.100Z,73.50
2018-07-12T01:13:06.450Z,73.20
2018-07-12T01:15:33.823Z,73.50
2018-07-12T01:18:01.243Z,73.70
2018-07-12T01:20:28.638Z,73.80
2018-07-12T01:22:56.051Z,73.60
2018-07-12T01:25:23.448Z,73.60
2018-07-12T01:27:50.884Z,73.70
2018-07-12T01:30:18.265Z,73.60
2018-07-12T01:32:45.664Z,73.50
2018-07-12T01:35:13.093Z,73.50
2018-07-12T01:37:40.534Z,73.40
2018-07-12T01:40:07.994Z,73.20
2018-07-12T01:42:35.423Z,72.90
2018-07-12T01:45:02.864Z,72.90
2018-07-12T01:47:30.286Z,72.90
2018-07-12T01:49:57.729Z,73.00
2018-07-12T01:52:25.166Z,73.10
2018-07-12T01:54:52.611Z,73.40
2018-07-12T01:57:20.146Z,73.50
2018-07-12T01:59:47.596Z,73.60
2018-07-12T02:02:15.031Z,73.70
2018-07-12T02:04:42.458Z,73.80
2018-07-12T02:07:09.861Z,73.90
2018-07-12T02:09:37.308Z,73.80
2018-07-12T02:12:04.812Z,73.90
2018-07-12T02:14:32.297Z,73.90
2018-07-12T02:16:59.838Z,74.00
2018-07-12T02:19:27.292Z,74.00
2018-07-12T02:21:54.719Z,74.00
2018-07-12T02:24:22.200Z,74.00
2018-07-12T02:26:49.627Z,74.00
2018-07-12T02:29:17.040Z,74.00
2018-07-12T02:31:44.462Z,74.20
2018-07-12T02:34:11.862Z,74.30
2018-07-12T02:36:39.355Z,74.40
2018-07-12T02:39:06.795Z,74.60
2018-07-12T02:41:34.214Z,74.90
2018-07-12T02:44:01.596Z,75.10
2018-07-12T02:46:29.055Z,75.20
2018-07-12T02:48:56.481Z,75.30
2018-07-12T02:51:23.978Z,75.60
2018-07-12T02:53:51.442Z,75.50
2018-07-12T02:56:18.888Z,75.60
2018-07-12T02:58:46.355Z,75.80
2018-07-12T03:01:13.794Z,76.00
2018-07-12T03:03:41.263Z,76.00
2018-07-12T03:06:08.738Z,75.90
2018-07-12T03:08:36.173Z,75.90
2018-07-12T03:11:03.670Z,76.00
2018-07-12T03:13:31.221Z,76.20
2018-07-12T03:15:58.720Z,76.40
2018-07-12T03:18:26.164Z,76.60
2018-07-12T03:20:53.645Z,76.60
2018-07-12T03:23:21.078Z,76.80
2018-07-12T03:25:48.518Z,76.80
2018-07-12T03:28:15.955Z,76.60
2018-07-12T03:30:43.405Z,76.60
2018-07-12T03:33:10.827Z,76.40
2018-07-12T03:35:38.289Z,76.40
2018-07-12T03:38:05.735Z,76.40
2018-07-12T03:40:33.268Z,76.30
2018-07-12T03:43:00.701Z,76.00
2018-07-12T03:45:28.126Z,76.30
2018-07-12T03:47:55.582Z,76.40
2018-07-12T03:50:23.002Z,76.50
2018-07-12T03:52:50.410Z,76.50
2018-07-12T03:55:17.865Z,76.70
2018-07-12T03:57:45.421Z,76.70
2018-07-12T04:00:12.949Z,76.80
2018-07-12T04:02:40.437Z,76.90
2018-07-12T04:05:07.818Z,77.00
2018-07-12T04:07:35.338Z,77.00
2018-07-12T04:10:02.782Z,77.20
2018-07-12T04:12:30.269Z,77.40
2018-07-12T04:14:57.707Z,77.70
2018-07-12T04:17:30.554Z,77.80
2018-07-12T04:19:59.117Z,77.90
2018-07-12T04:22:27.662Z,77.70
2018-07-12T04:24:55.120Z,77.60
2018-07-12T04:27:22.834Z,77.70
2018-07-12T04:29:51.581Z,78.00
2018-07-12T04:32:19.259Z,78.20
2018-07-12T04:34:53.633Z,78.10
2018-07-12T04:37:21.084Z,78.10
2018-07-12T04:39:48.495Z,77.90
2018-07-12T04:42:15.902Z,77.90
2018-07-12T04:44:43.338Z,78.10
2018-07-12T04:47:10.790Z,78.00
2018-07-12T04:49:38.221Z,78.10
2018-07-12T04:52:05.682Z,77.90
2018-07-12T04:54:33.232Z,77.90
2018-07-12T04:57:00.710Z,77.90
2018-07-12T04:59:28.152Z,78.00
2018-07-12T05:01:55.609Z,77.40
2018-07-12T05:04:23.058Z,77.60
2018-07-12T05:06:50.496Z,77.40
2018-07-12T05:09:17.995Z,77.70
2018-07-12T05:11:45.444Z,77.80
2018-07-12T05:14:12.890Z,77.80
2018-07-12T05:16:40.408Z,77.20
2018-07-12T05:19:07.884Z,76.90
2018-07-12T05:21:35.343Z,77.10
2018-07-12T05:24:02.735Z,77.30
2018-07-12T05:26:30.203Z,77.40
2018-07-12T05:28:57.713Z,77.60
2018-07-12T05:31:25.214Z,77.30
2018-07-12T05:33:52.655Z,77.60
2018-07-12T05:36:28.418Z,77.40
2018-07-12T05:38:57.046Z,77.20
2018-07-12T05:41:25.674Z,77.40
2018-07-12T05:43:54.325Z,77.60
2018-07-12T05:46:23.036Z,77.40
2018-07-12T05:48:51.770Z,77.80
2018-07-12T05:51:20.402Z,78.00
2018-07-12T05:53:49.053Z,77.60
2018-07-12T05:56:17.713Z,77.40
2018-07-12T05:58:46.361Z,76.80
2018-07-12T06:01:26.060Z,77.20
2018-07-12T06:03:54.781Z,77.20
2018-07-12T06:06:23.460Z,77.10
2018-07-12T06:08:52.179Z,77.10
2018-07-12T06:11:20.814Z,77.10
2018-07-12T06:13:49.819Z,77.40
2018-07-12T06:16:18.507Z,77.70
2018-07-12T06:18:47.244Z,77.70
2018-07-12T06:21:15.982Z,77.90
2018-07-12T06:23:44.705Z,77.20
2018-07-12T06:26:13.352Z,77.60
2018-07-12T06:28:41.993Z,78.00
2018-07-12T06:31:10.722Z,77.30
2018-07-12T06:33:39.315Z,77.00
2018-07-12T06:36:08.013Z,77.80
2018-07-12T06:38:36.891Z,77.70
2018-07-12T06:41:05.700Z,78.20
2018-07-12T06:43:34.404Z,77.90
2018-07-12T06:46:03.095Z,77.70
2018-07-12T06:48:31.744Z,77.60
2018-07-12T06:51:00.400Z,77.40
2018-07-12T06:53:29.125Z,76.50
2018-07-12T06:55:57.997Z,77.20
2018-07-12T06:58:34.989Z,77.00
2018-07-12T07:01:03.743Z,76.50
2018-07-12T07:03:32.357Z,76.40
2018-07-12T07:06:01.120Z,76.20
2018-07-12T07:08:29.800Z,75.60
2018-07-12T07:10:58.465Z,76.00
2018-07-12T07:13:27.138Z,76.30
2018-07-12T07:15:57.027Z,77.10
2018-07-12T07:18:25.722Z,77.60
2018-07-12T07:20:54.354Z,78.60
2018-07-12T07:23:22.975Z,78.30
2018-07-12T07:25:51.637Z,78.20
2018-07-12T07:28:20.254Z,78.00
2018-07-12T07:30:48.859Z,78.00
2018-07-12T07:33:17.489Z,78.10
2018-07-12T07:35:49.259Z,77.70
2018-07-12T07:38:17.850Z,77.70
2018-07-12T07:40:46.397Z,77.70
2018-07-12T07:43:15.118Z,76.80
2018-07-12T07:45:43.837Z,75.30
2018-07-12T07:48:12.450Z,75.50
2018-07-12T07:50:41.169Z,75.40
2018-07-12T07:53:09.865Z,75.00
2018-07-12T07:55:38.545Z,75.10
2018-07-12T07:58:07.226Z,75.60
2018-07-12T08:00:35.834Z,76.50
2018-07-12T08:03:04.563Z,76.60
2018-07-12T08:05:33.227Z,76.50
2018-07-12T08:08:01.998Z,76.70
2018-07-12T08:10:31.139Z,76.20
2018-07-12T08:12:59.886Z,75.60
2018-07-12T08:15:28.549Z,75.20
2018-07-12T08:17:57.246Z,75.80
2018-07-12T08:20:25.994Z,75.60
2018-07-12T08:22:54.637Z,74.60
2018-07-12T08:25:23.326Z,73.80
2018-07-12T08:28:03.182Z,73.60
2018-07-12T08:30:31.844Z,72.10
2018-07-12T08:33:00.656Z,71.50
2018-07-12T08:35:29.339Z,72.40
2018-07-12T08:37:58.018Z,72.00
2018-07-12T08:40:26.752Z,72.20
2018-07-12T08:42:55.423Z,72.40
2018-07-12T08:45:24.128Z,73.00
2018-07-12T08:47:52.805Z,73.20
2018-07-12T08:50:21.413Z,72.70
2018-07-12T08:52:50.099Z,72.30
2018-07-12T08:55:18.820Z,72.00
2018-07-12T08:57:47.654Z,70.20
2018-07-12T09:00:17.239Z,70.30
2018-07-12T09:02:45.917Z,69.90
2018-07-12T09:05:14.549Z,70.50
2018-07-12T09:07:43.276Z,70.10
2018-07-12T09:10:11.958Z,68.60
2018-07-12T09:12:40.696Z,67.40
2018-07-12T09:15:09.302Z,67.90
2018-07-12T09:17:37.967Z,67.60
2018-07-12T09:20:06.663Z,67.10
2018-07-12T09:22:35.386Z,68.90
2018-07-12T09:25:04.283Z,68.90
2018-07-12T09:27:32.951Z,67.60
2018-07-12T09:30:01.584Z,68.00
2018-07-12T09:32:30.314Z,68.50
2018-07-12T09:34:58.998Z,69.90
2018-07-12T09:40:25.584Z,70.70
2018-07-12T09:42:55.488Z,70.50
2018-07-12T09:45:24.140Z,69.80
2018-07-12T09:47:52.830Z,69.10
2018-07-12T09:50:21.465Z,68.20
2018-07-12T09:52:50.101Z,69.40
2018-07-12T09:55:18.704Z,65.60
2018-07-12T09:57:58.314Z,63.80
2018-07-12T10:00:32.096Z,61.90
2018-07-12T10:03:20.217Z,60.90
2018-07-12T10:05:54.166Z,62.60
2018-07-12T10:08:28.005Z,64.90
2018-07-12T10:11:01.863Z,66.30
2018-07-12T10:13:41.724Z,67.00
2018-07-12T10:16:15.510Z,66.80
2018-07-12T10:18:44.206Z,66.30
2018-07-12T10:21:12.782Z,65.90
2018-07-12T10:23:41.407Z,66.60
2018-07-12T10:26:10.029Z,64.30
2018-07-12T10:28:38.640Z,63.00
2018-07-12T10:31:07.285Z,60.70
2018-07-12T10:33:56.549Z,58.60
2018-07-12T10:36:25.177Z,60.80
2018-07-12T10:38:53.848Z,62.00
2018-07-12T10:41:22.513Z,63.80
2018-07-12T10:43:51.161Z,64.20
2018-07-12T10:46:19.650Z,64.00
2018-07-12T10:48:51.886Z,65.70
2018-07-12T10:51:20.526Z,62.40
2018-07-12T10:53:49.176Z,62.20
2018-07-12T10:56:17.810Z,61.40
2018-07-12T10:58:46.412Z,59.40
2018-07-12T11:01:15.092Z,60.10
2018-07-12T11:03:45.833Z,59.30
2018-07-12T11:06:14.464Z,59.30
2018-07-12T11:08:43.091Z,60.60
2018-07-12T11:11:11.676Z,62.70
2018-07-12T11:13:47.423Z,61.70
2018-07-12T11:16:16.092Z,58.80
2018-07-12T11:18:44.634Z,58.20
2018-07-12T11:21:13.539Z,59.10
2018-07-12T11:23:42.451Z,61.20
2018-07-12T11:26:11.447Z,62.60
2018-07-12T11:28:40.242Z,62.30
2018-07-12T11:31:09.190Z,61.70
2018-07-12T11:33:39.427Z,62.50
2018-07-12T11:36:08.376Z,62.20
2018-07-12T11:38:39.204Z,61.60
2018-07-12T11:41:08.376Z,61.20
2018-07-12T11:43:39.000Z,60.60
2018-07-12T11:46:08.923Z,59.80
2018-07-12T11:48:38.629Z,60.30
2018-07-12T11:51:08.454Z,59.30
2018-07-12T11:53:37.216Z,58.40
2018-07-12T11:56:06.103Z,59.40
2018-07-12T11:58:35.127Z,57.90
2018-07-12T12:01:04.126Z,57.60
2018-07-12T12:06:32.058Z,56.40
2018-07-12T12:09:13.833Z,56.60
2018-07-12T12:11:42.623Z,56.10
2018-07-12T12:14:11.366Z,56.50
2018-07-12T12:16:42.184Z,56.50
2018-07-12T12:19:11.538Z,56.40
2018-07-12T12:21:40.917Z,57.40
2018-07-12T12:24:09.703Z,57.70
2018-07-12T12:26:38.458Z,59.30
2018-07-12T12:29:07.022Z,59.60
2018-07-12T12:31:36.054Z,60.10
2018-07-12T12:34:04.616Z,59.20
2018-07-12T12:36:33.838Z,58.90
2018-07-12T12:39:02.573Z,58.70
2018-07-12T12:41:31.229Z,60.10
2018-07-12T12:43:59.864Z,60.80
2018-07-12T12:46:28.483Z,61.30
2018-07-12T12:48:57.118Z,62.40
2018-07-12T12:51:25.863Z,61.60
2018-07-12T12:53:54.467Z,61.00
2018-07-12T12:56:23.291Z,59.80
2018-07-12T12:58:52.188Z,58.10
2018-07-12T13:01:20.899Z,57.50
2018-07-12T13:03:49.499Z,57.50
2018-07-12T13:06:18.114Z,56.90
2018-07-12T13:08:48.412Z,56.60
2018-07-12T13:11:17.065Z,54.60
2018-07-12T13:13:47.268Z,55.40
2018-07-12T13:16:16.423Z,54.90
2018-07-12T13:18:44.982Z,53.60
2018-07-12T13:21:13.535Z,53.80
2018-07-12T13:23:42.302Z,55.30
2018-07-12T13:26:11.035Z,57.90
2018-07-12T13:28:39.546Z,59.10
2018-07-12T13:31:08.105Z,61.70
2018-07-12T13:33:36.720Z,60.30
2018-07-12T13:36:11.775Z,60.50
2018-07-12T13:38:40.398Z,56.60
2018-07-12T13:41:09.298Z,55.50
2018-07-12T13:43:38.221Z,55.40
2018-07-12T13:46:06.864Z,55.10
2018-07-12T13:48:35.453Z,54.00
2018-07-12T13:51:04.060Z,55.00
2018-07-12T13:53:32.737Z,56.10
2018-07-12T13:56:01.737Z,57.00
2018-07-12T13:58:30.409Z,57.50
2018-07-12T14:00:59.094Z,57.50
2018-07-12T14:06:33.117Z,56.10
2018-07-12T14:09:01.818Z,56.20
2018-07-12T14:11:30.470Z,56.00
2018-07-12T14:13:59.251Z,54.40
2018-07-12T14:16:47.214Z,52.10
2018-07-12T14:19:16.007Z,50.50
2018-07-12T14:21:44.654Z,50.50
2018-07-12T14:24:13.359Z,51.60
2018-07-12T14:26:41.922Z,48.60
2018-07-12T14:29:11.002Z,50.00
2018-07-12T14:31:39.762Z,50.70
2018-07-12T14:34:08.484Z,52.20
2018-07-12T14:36:37.164Z,54.60
2018-07-12T14:39:07.366Z,54.10
2018-07-12T14:41:36.133Z,53.00
2018-07-12T14:44:05.043Z,51.50
2018-07-12T14:46:56.644Z,50.60
2018-07-12T14:49:25.334Z,50.40
2018-07-12T14:51:54.097Z,49.70
2018-07-12T14:54:22.717Z,51.00
2018-07-12T14:56:51.399Z,51.60
2018-07-12T14:59:20.090Z,50.20
2018-07-12T15:01:48.760Z,50.20
2018-07-12T15:04:17.397Z,49.80
2018-07-12T15:06:45.982Z,50.30
2018-07-12T15:09:14.986Z,50.60
2018-07-12T15:11:43.675Z,50.90
2018-07-12T15:14:12.358Z,49.60
2018-07-12T15:16:41.236Z,49.10
2018-07-12T15:19:10.005Z,49.70
2018-07-12T15:21:39.083Z,50.60
2018-07-12T15:27:04.213Z,49.50
2018-07-12T15:29:33.027Z,48.60
2018-07-12T15:32:03.731Z,49.50
2018-07-12T15:34:32.316Z,49.70
2018-07-12T15:37:00.915Z,47.30
2018-07-12T15:39:29.407Z,46.70
2018-07-12T15:41:58.021Z,44.90
2018-07-12T15:44:26.591Z,43.50
2018-07-12T15:46:59.125Z,44.90
2018-07-12T15:49:27.725Z,44.40
2018-07-12T15:52:04.861Z,44.20
2018-07-12T15:54:34.676Z,43.70
2018-07-12T15:57:05.453Z,43.70
2018-07-12T15:59:37.221Z,43.30
2018-07-12T16:02:07.655Z,43.20
2018-07-12T16:04:37.485Z,43.10
2018-07-12T16:07:07.086Z,44.30
2018-07-12T16:09:35.757Z,46.10
2018-07-12T16:12:04.330Z,46.50
2018-07-12T16:14:32.931Z,46.00
2018-07-12T16:17:01.461Z,44.40
2018-07-12T16:19:30.056Z,43.60
2018-07-12T16:21:58.641Z,43.70
2018-07-12T16:24:27.215Z,44.20
2018-07-12T16:26:56.895Z,43.70
2018-07-12T16:29:25.572Z,43.60
2018-07-12T16:31:54.253Z,42.90
2018-07-12T16:34:22.810Z,44.00
2018-07-12T16:36:51.490Z,45.00
2018-07-12T16:39:20.010Z,45.50
2018-07-12T16:41:48.574Z,46.60
2018-07-12T16:44:17.113Z,45.20
2018-07-12T16:46:45.770Z,46.50
2018-07-12T16:49:14.314Z,48.40
2018-07-12T16:51:42.955Z,48.30
2018-07-12T16:54:11.514Z,50.80
2018-07-12T16:56:40.168Z,51.80
2018-07-12T16:59:08.741Z,52.90
2018-07-12T17:01:37.423Z,54.40
2018-07-12T17:04:06.062Z,56.10
2018-07-12T17:06:34.879Z,56.90
2018-07-12T17:09:03.625Z,56.40
2018-07-12T17:11:32.299Z,56.40
2018-07-12T17:14:00.961Z,57.20
2018-07-12T17:16:29.642Z,58.40
2018-07-12T17:18:58.306Z,60.20
2018-07-12T17:21:26.872Z,60.60
2018-07-12T17:23:55.507Z,59.40
2018-07-12T17:26:24.127Z,58.50
2018-07-12T17:28:52.727Z,59.40
2018-07-12T17:31:21.422Z,58.80
2018-07-12T17:33:50.008Z,58.50
2018-07-12T17:36:18.670Z,56.30
2018-07-12T17:38:47.245Z,55.80
2018-07-12T17:41:15.806Z,55.30
2018-07-12T17:43:44.457Z,54.10
2018-07-12T17:46:13.026Z,52.10
2018-07-12T17:48:41.570Z,53.80
2018-07-12T17:51:10.142Z,53.60
2018-07-12T17:53:38.784Z,53.80
2018-07-12T17:56:07.506Z,54.50
2018-07-12T17:58:36.115Z,54.40
2018-07-12T18:01:04.798Z,54.40
2018-07-12T18:03:33.466Z,54.80
2018-07-12T18:06:02.016Z,55.00
2018-07-12T18:08:30.604Z,56.40
2018-07-12T18:10:59.220Z,55.40
2018-07-12T18:13:27.826Z,54.20
2018-07-12T18:15:56.477Z,54.30
2018-07-12T18:18:25.092Z,54.30
2018-07-12T18:20:53.689Z,55.60
2018-07-12T18:23:22.289Z,56.40
2018-07-12T18:25:50.825Z,57.00
2018-07-12T18:28:19.431Z,56.40
2018-07-12T18:30:48.129Z,57.50
2018-07-12T18:33:16.789Z,57.40
2018-07-12T18:35:45.385Z,57.00
2018-07-12T18:38:13.978Z,57.30
2018-07-12T18:40:42.598Z,58.00
2018-07-12T18:43:11.486Z,58.40
2018-07-12T18:45:40.130Z,60.70
2018-07-12T18:48:08.782Z,62.30
2018-07-12T18:50:37.359Z,63.00
2018-07-12T18:53:06.063Z,63.60
2018-07-12T18:55:34.721Z,65.00
2018-07-12T18:58:03.368Z,65.30
2018-07-12T19:00:32.002Z,65.80
2018-07-12T19:03:00.711Z,66.00
2018-07-12T19:05:29.355Z,66.30
2018-07-12T19:07:57.943Z,66.50
2018-07-12T19:10:26.546Z,66.80
2018-07-12T19:12:55.219Z,66.90
2018-07-12T19:15:24.070Z,67.00
2018-07-12T19:17:52.690Z,66.80
2018-07-12T19:20:21.322Z,66.60
2018-07-12T19:22:50.022Z,66.90
2018-07-12T19:25:18.709Z,67.00
2018-07-12T19:27:47.329Z,67.10
2018-07-12T19:30:16.012Z,67.30
2018-07-12T19:32:44.588Z,67.40
2018-07-12T19:35:16.345Z,67.90
2018-07-12T19:37:45.017Z,67.70
2018-07-12T19:40:13.701Z,67.60
2018-07-12T19:42:42.270Z,68.50
2018-07-12T19:45:15.571Z,68.90
2018-07-12T19:47:44.487Z,69.50
2018-07-12T19:50:13.214Z,69.60
2018-07-12T19:52:41.895Z,70.10
2018-07-12T19:55:10.462Z,70.30
2018-07-12T19:57:39.139Z,70.50
2018-07-12T20:00:08.109Z,70.70
2018-07-12T20:02:36.789Z,70.90
2018-07-12T20:05:05.756Z,71.10
2018-07-12T20:07:34.912Z,71.20
2018-07-12T20:10:03.647Z,71.60
2018-07-12T20:12:32.525Z,72.00
2018-07-12T20:15:01.256Z,72.40
2018-07-12T20:17:30.027Z,72.50
2018-07-12T20:19:58.852Z,72.80
2018-07-12T20:22:27.511Z,73.20
2018-07-12T20:24:56.223Z,73.40
2018-07-12T20:27:24.810Z,73.50
2018-07-12T20:29:53.419Z,73.90
2018-07-12T20:32:22.055Z,74.20
2018-07-12T20:34:50.678Z,74.20
2018-07-12T20:37:19.402Z,74.30
2018-07-12T20:39:48.102Z,74.60
2018-07-12T20:42:16.691Z,75.00
2018-07-12T20:44:45.407Z,75.10
2018-07-12T20:47:14.152Z,75.30
2018-07-12T20:49:44.094Z,75.70
2018-07-12T20:52:12.843Z,76.00
2018-07-12T20:54:42.412Z,76.20
2018-07-12T20:57:11.214Z,76.40
2018-07-12T20:59:39.845Z,76.60
2018-07-12T21:02:08.599Z,76.60
2018-07-12T21:04:37.193Z,77.10
2018-07-12T21:07:05.943Z,77.00
2018-07-12T21:09:34.589Z,77.20
2018-07-12T21:12:03.458Z,77.80
2018-07-12T21:14:32.057Z,78.50
2018-07-12T21:17:00.713Z,78.60
2018-07-12T21:19:29.277Z,78.70
2018-07-12T21:21:58.013Z,78.70
2018-07-12T21:24:26.605Z,79.30
2018-07-12T21:26:55.227Z,79.40
2018-07-12T21:29:23.765Z,79.40
2018-07-12T21:31:52.418Z,79.70
2018-07-12T21:34:21.045Z,79.70
2018-07-12T21:36:49.654Z,79.70
2018-07-12T21:39:18.266Z,79.90
2018-07-12T21:41:46.934Z,80.00
2018-07-12T21:44:15.547Z,80.20
2018-07-12T21:46:44.273Z,80.20
2018-07-12T21:49:12.870Z,80.60
2018-07-12T21:51:41.655Z,80.60
2018-07-12T21:54:10.295Z,80.60
2018-07-12T21:56:39.009Z,80.70
2018-07-12T21:59:07.687Z,80.90
2018-07-12T22:01:36.473Z,81.30
2018-07-12T22:04:05.130Z,81.10
2018-07-12T22:06:46.233Z,81.50
2018-07-12T22:09:14.858Z,81.60
2018-07-12T22:11:43.501Z,82.00
2018-07-12T22:14:12.166Z,82.20
2018-07-12T22:16:40.810Z,80.30
2018-07-12T22:19:09.487Z,82.80
2018-07-12T22:21:38.179Z,82.90
2018-07-12T22:24:06.821Z,82.90
2018-07-12T22:26:35.489Z,83.00
2018-07-12T22:29:04.139Z,83.10
2018-07-12T22:31:32.805Z,83.10
2018-07-12T22:34:01.405Z,83.40
2018-07-12T22:36:30.059Z,83.50
2018-07-12T22:38:58.718Z,83.80
2018-07-12T22:41:27.359Z,83.90
2018-07-12T22:43:55.979Z,84.50
2018-07-12T22:46:24.623Z,84.50
2018-07-12T22:48:53.463Z,84.80
2018-07-12T22:51:21.980Z,84.90
2018-07-12T22:53:50.714Z,85.00
2018-07-12T22:56:19.369Z,84.90
2018-07-12T22:58:48.077Z,85.10
2018-07-12T23:01:16.734Z,85.00
2018-07-12T23:03:45.414Z,85.00
2018-07-12T23:06:14.047Z,84.90
2018-07-12T23:08:42.710Z,85.00
2018-07-12T23:11:11.344Z,85.10
2018-07-12T23:13:40.047Z,85.00
2018-07-12T23:16:08.722Z,85.20
2018-07-12T23:18:37.416Z,85.30
2018-07-12T23:21:06.106Z,85.10
2018-07-12T23:23:34.729Z,85.10
2018-07-12T23:26:03.346Z,85.10
2018-07-12T23:28:32.066Z,85.20
2018-07-12T23:31:00.754Z,85.10
2018-07-12T23:33:29.447Z,85.10
2018-07-12T23:35:58.095Z,85.20
2018-07-12T23:38:26.723Z,85.30
2018-07-12T23:41:19.986Z,85.40
2018-07-12T23:43:49.329Z,85.60
2018-07-12T23:46:17.966Z,85.60
2018-07-12T23:48:46.614Z,85.50
2018-07-12T23:51:15.237Z,85.60
2018-07-12T23:53:43.904Z,85.80
2018-07-12T23:56:12.568Z,85.70
2018-07-12T23:58:41.237Z,85.80
